sensor_id;sensor_type;location;lat;lon;timestamp;P1;durP1;ratioP1;P2;durP2;ratioP2
25351;SDS011;13304;48.464;8.712;2022-09-09T00:01:00;4.50;;;1.38;;
25351;SDS011;13304;48.464;8.712;2022-09-09T00:03:56;3.80;;;1.20;;
25351;SDS011;13304;48.464;8.712;2022-09-09T00:06:51;6.57;;;1.50;;
25351;SDS011;13304;48.464;8.712;2022-09-09T00:09:28;3.42;;;1.30;;
25351;SDS011;13304;48.464;8.712;2022-09-09T00:12:04;3.15;;;1.10;;
25351;SDS011;13304;48.464;8.712;2022-09-09T00:17:09;4.15;;;1.13;;
25351;SDS011;13304;48.464;8.712;2022-09-09T00:25:49;2.97;;;1.00;;
25351;SDS011;13304;48.464;8.712;2022-09-09T00:28:19;2.85;;;1.00;;
25351;SDS011;13304;48.464;8.712;2022-09-09T00:30:48;4.75;;;1.38;;
25351;SDS011;13304;48.464;8.712;2022-09-09T00:33:14;10.10;;;1.13;;
25351;SDS011;13304;48.464;8.712;2022-09-09T00:35:51;4.75;;;1.27;;
25351;SDS011;13304;48.464;8.712;2022-09-09T00:43:37;5.82;;;1.08;;
25351;SDS011;13304;48.464;8.712;2022-09-09T00:48:50;3.97;;;1.50;;
25351;SDS011;13304;48.464;8.712;2022-09-09T00:54:16;2.45;;;1.10;;
25351;SDS011;13304;48.464;8.712;2022-09-09T00:59:52;4.55;;;1.30;;
25351;SDS011;13304;48.464;8.712;2022-09-09T01:02:42;3.35;;;1.30;;
25351;SDS011;13304;48.464;8.712;2022-09-09T01:10:58;2.97;;;1.20;;
25351;SDS011;13304;48.464;8.712;2022-09-09T01:13:27;3.28;;;1.08;;
25351;SDS011;13304;48.464;8.712;2022-09-09T01:15:59;3.65;;;1.00;;
25351;SDS011;13304;48.464;8.712;2022-09-09T01:18:38;6.05;;;1.00;;
25351;SDS011;13304;48.464;8.712;2022-09-09T01:24:27;2.97;;;1.10;;
25351;SDS011;13304;48.464;8.712;2022-09-09T01:27:03;6.13;;;1.20;;
25351;SDS011;13304;48.464;8.712;2022-09-09T01:29:31;4.82;;;1.40;;
25351;SDS011;13304;48.464;8.712;2022-09-09T01:31:59;3.75;;;1.15;;
25351;SDS011;13304;48.464;8.712;2022-09-09T01:34:28;3.75;;;1.27;;
25351;SDS011;13304;48.464;8.712;2022-09-09T01:37:05;5.30;;;1.23;;
25351;SDS011;13304;48.464;8.712;2022-09-09T01:39:33;4.50;;;1.50;;
25351;SDS011;13304;48.464;8.712;2022-09-09T01:42:00;4.78;;;1.27;;
25351;SDS011;13304;48.464;8.712;2022-09-09T01:44:26;3.58;;;1.40;;
25351;SDS011;13304;48.464;8.712;2022-09-09T01:46:54;3.22;;;1.40;;
25351;SDS011;13304;48.464;8.712;2022-09-09T01:49:20;6.22;;;1.38;;
25351;SDS011;13304;48.464;8.712;2022-09-09T01:51:50;4.43;;;1.05;;
25351;SDS011;13304;48.464;8.712;2022-09-09T01:54:18;4.13;;;1.02;;
25351;SDS011;13304;48.464;8.712;2022-09-09T02:02:26;7.50;;;1.15;;
25351;SDS011;13304;48.464;8.712;2022-09-09T02:05:01;2.95;;;1.33;;
25351;SDS011;13304;48.464;8.712;2022-09-09T02:07:41;3.15;;;1.08;;
25351;SDS011;13304;48.464;8.712;2022-09-09T02:10:09;2.10;;;0.73;;
25351;SDS011;13304;48.464;8.712;2022-09-09T02:12:40;2.15;;;0.80;;
25351;SDS011;13304;48.464;8.712;2022-09-09T02:15:30;4.63;;;1.35;;
25351;SDS011;13304;48.464;8.712;2022-09-09T02:17:57;3.95;;;1.20;;
25351;SDS011;13304;48.464;8.712;2022-09-09T02:20:26;3.78;;;1.38;;
25351;SDS011;13304;48.464;8.712;2022-09-09T02:22:58;2.72;;;1.23;;
25351;SDS011;13304;48.464;8.712;2022-09-09T02:25:26;3.63;;;1.08;;
25351;SDS011;13304;48.464;8.712;2022-09-09T02:27:54;6.43;;;1.52;;
25351;SDS011;13304;48.464;8.712;2022-09-09T02:30:24;4.32;;;1.42;;
25351;SDS011;13304;48.464;8.712;2022-09-09T02:32:54;5.40;;;1.42;;
25351;SDS011;13304;48.464;8.712;2022-09-09T02:35:24;4.78;;;1.10;;
25351;SDS011;13304;48.464;8.712;2022-09-09T02:37:54;1.55;;;1.10;;
25351;SDS011;13304;48.464;8.712;2022-09-09T02:40:24;5.75;;;1.25;;
25351;SDS011;13304;48.464;8.712;2022-09-09T02:42:50;3.40;;;1.23;;
25351;SDS011;13304;48.464;8.712;2022-09-09T02:45:16;4.72;;;1.55;;
25351;SDS011;13304;48.464;8.712;2022-09-09T02:47:56;2.20;;;0.98;;
25351;SDS011;13304;48.464;8.712;2022-09-09T02:50:34;4.65;;;1.30;;
25351;SDS011;13304;48.464;8.712;2022-09-09T02:55:47;3.20;;;1.15;;
25351;SDS011;13304;48.464;8.712;2022-09-09T02:58:16;2.42;;;1.10;;
25351;SDS011;13304;48.464;8.712;2022-09-09T03:00:45;4.78;;;1.50;;
25351;SDS011;13304;48.464;8.712;2022-09-09T03:03:12;3.50;;;1.10;;
25351;SDS011;13304;48.464;8.712;2022-09-09T03:05:37;5.47;;;1.50;;
25351;SDS011;13304;48.464;8.712;2022-09-09T03:08:03;4.43;;;1.48;;
25351;SDS011;13304;48.464;8.712;2022-09-09T03:10:33;5.25;;;1.75;;
25351;SDS011;13304;48.464;8.712;2022-09-09T03:12:59;4.57;;;1.33;;
25351;SDS011;13304;48.464;8.712;2022-09-09T03:15:26;3.78;;;1.30;;
25351;SDS011;13304;48.464;8.712;2022-09-09T03:17:56;7.00;;;1.88;;
25351;SDS011;13304;48.464;8.712;2022-09-09T03:20:23;7.22;;;1.65;;
25351;SDS011;13304;48.464;8.712;2022-09-09T03:22:51;6.43;;;1.67;;
25351;SDS011;13304;48.464;8.712;2022-09-09T03:25:20;5.75;;;1.38;;
25351;SDS011;13304;48.464;8.712;2022-09-09T03:27:49;2.40;;;0.93;;
25351;SDS011;13304;48.464;8.712;2022-09-09T03:30:15;5.68;;;1.65;;
25351;SDS011;13304;48.464;8.712;2022-09-09T03:32:44;4.57;;;1.48;;
25351;SDS011;13304;48.464;8.712;2022-09-09T03:35:09;5.90;;;1.63;;
25351;SDS011;13304;48.464;8.712;2022-09-09T03:37:38;5.38;;;1.60;;
25351;SDS011;13304;48.464;8.712;2022-09-09T03:40:04;5.53;;;1.70;;
25351;SDS011;13304;48.464;8.712;2022-09-09T03:42:31;9.55;;;1.42;;
25351;SDS011;13304;48.464;8.712;2022-09-09T03:44:56;10.90;;;1.52;;
25351;SDS011;13304;48.464;8.712;2022-09-09T03:47:22;6.40;;;1.52;;
25351;SDS011;13304;48.464;8.712;2022-09-09T03:49:48;2.92;;;1.33;;
25351;SDS011;13304;48.464;8.712;2022-09-09T03:52:15;2.60;;;1.25;;
25351;SDS011;13304;48.464;8.712;2022-09-09T03:54:41;3.72;;;1.40;;
25351;SDS011;13304;48.464;8.712;2022-09-09T03:57:07;5.00;;;1.30;;
25351;SDS011;13304;48.464;8.712;2022-09-09T03:59:36;3.20;;;1.10;;
25351;SDS011;13304;48.464;8.712;2022-09-09T04:02:02;4.97;;;1.50;;
25351;SDS011;13304;48.464;8.712;2022-09-09T04:04:28;5.65;;;1.17;;
25351;SDS011;13304;48.464;8.712;2022-09-09T04:06:54;2.30;;;1.17;;
25351;SDS011;13304;48.464;8.712;2022-09-09T04:09:20;6.32;;;1.40;;
25351;SDS011;13304;48.464;8.712;2022-09-09T04:11:46;5.78;;;1.38;;
25351;SDS011;13304;48.464;8.712;2022-09-09T04:14:12;4.82;;;1.15;;
25351;SDS011;13304;48.464;8.712;2022-09-09T04:16:38;3.08;;;1.23;;
25351;SDS011;13304;48.464;8.712;2022-09-09T04:19:04;4.60;;;1.10;;
25351;SDS011;13304;48.464;8.712;2022-09-09T04:21:32;3.33;;;1.17;;
25351;SDS011;13304;48.464;8.712;2022-09-09T04:23:58;5.13;;;1.23;;
25351;SDS011;13304;48.464;8.712;2022-09-09T04:26:24;6.88;;;1.40;;
25351;SDS011;13304;48.464;8.712;2022-09-09T04:28:49;6.70;;;1.48;;
25351;SDS011;13304;48.464;8.712;2022-09-09T04:31:19;6.80;;;1.40;;
25351;SDS011;13304;48.464;8.712;2022-09-09T04:33:48;5.32;;;1.65;;
25351;SDS011;13304;48.464;8.712;2022-09-09T04:36:14;5.82;;;1.50;;
25351;SDS011;13304;48.464;8.712;2022-09-09T04:38:40;6.05;;;1.30;;
25351;SDS011;13304;48.464;8.712;2022-09-09T04:41:06;6.63;;;1.50;;
25351;SDS011;13304;48.464;8.712;2022-09-09T04:43:32;4.35;;;1.10;;
25351;SDS011;13304;48.464;8.712;2022-09-09T04:45:59;7.70;;;1.50;;
25351;SDS011;13304;48.464;8.712;2022-09-09T04:48:25;4.35;;;1.38;;
25351;SDS011;13304;48.464;8.712;2022-09-09T04:50:57;4.72;;;1.27;;
25351;SDS011;13304;48.464;8.712;2022-09-09T04:53:24;8.45;;;1.58;;
25351;SDS011;13304;48.464;8.712;2022-09-09T04:55:51;7.15;;;1.50;;
25351;SDS011;13304;48.464;8.712;2022-09-09T04:58:17;11.05;;;1.52;;
25351;SDS011;13304;48.464;8.712;2022-09-09T05:00:43;3.55;;;1.38;;
25351;SDS011;13304;48.464;8.712;2022-09-09T05:03:12;2.42;;;1.17;;
25351;SDS011;13304;48.464;8.712;2022-09-09T05:05:37;3.72;;;1.30;;
25351;SDS011;13304;48.464;8.712;2022-09-09T05:08:04;6.95;;;1.50;;
25351;SDS011;13304;48.464;8.712;2022-09-09T05:10:31;5.45;;;1.35;;
25351;SDS011;13304;48.464;8.712;2022-09-09T05:13:02;2.78;;;1.30;;
25351;SDS011;13304;48.464;8.712;2022-09-09T05:15:29;4.50;;;1.10;;
25351;SDS011;13304;48.464;8.712;2022-09-09T05:18:01;8.95;;;1.50;;
25351;SDS011;13304;48.464;8.712;2022-09-09T05:20:29;3.55;;;1.10;;
25351;SDS011;13304;48.464;8.712;2022-09-09T05:22:57;4.22;;;1.33;;
25351;SDS011;13304;48.464;8.712;2022-09-09T05:25:23;3.33;;;1.20;;
25351;SDS011;13304;48.464;8.712;2022-09-09T05:27:52;4.35;;;1.40;;
25351;SDS011;13304;48.464;8.712;2022-09-09T05:30:18;4.18;;;1.40;;
25351;SDS011;13304;48.464;8.712;2022-09-09T05:32:45;4.20;;;1.30;;
25351;SDS011;13304;48.464;8.712;2022-09-09T05:35:12;6.20;;;1.35;;
25351;SDS011;13304;48.464;8.712;2022-09-09T05:37:41;7.07;;;1.60;;
25351;SDS011;13304;48.464;8.712;2022-09-09T05:40:07;8.00;;;1.58;;
25351;SDS011;13304;48.464;8.712;2022-09-09T05:42:33;6.82;;;1.80;;
25351;SDS011;13304;48.464;8.712;2022-09-09T05:44:59;4.15;;;1.30;;
25351;SDS011;13304;48.464;8.712;2022-09-09T05:47:24;6.30;;;1.88;;
25351;SDS011;13304;48.464;8.712;2022-09-09T05:49:52;4.57;;;1.70;;
25351;SDS011;13304;48.464;8.712;2022-09-09T05:52:19;2.85;;;1.25;;
25351;SDS011;13304;48.464;8.712;2022-09-09T05:54:45;6.90;;;1.42;;
25351;SDS011;13304;48.464;8.712;2022-09-09T05:57:11;5.43;;;1.33;;
25351;SDS011;13304;48.464;8.712;2022-09-09T05:59:36;3.15;;;1.17;;
25351;SDS011;13304;48.464;8.712;2022-09-09T06:02:03;5.15;;;1.52;;
25351;SDS011;13304;48.464;8.712;2022-09-09T06:04:29;4.32;;;1.50;;
25351;SDS011;13304;48.464;8.712;2022-09-09T06:06:55;4.32;;;1.40;;
25351;SDS011;13304;48.464;8.712;2022-09-09T06:09:21;6.80;;;1.50;;
25351;SDS011;13304;48.464;8.712;2022-09-09T06:11:46;8.35;;;1.92;;
25351;SDS011;13304;48.464;8.712;2022-09-09T06:14:12;7.00;;;1.75;;
25351;SDS011;13304;48.464;8.712;2022-09-09T06:16:38;2.88;;;1.50;;
25351;SDS011;13304;48.464;8.712;2022-09-09T06:19:04;4.20;;;1.52;;
25351;SDS011;13304;48.464;8.712;2022-09-09T06:21:30;5.38;;;1.65;;
25351;SDS011;13304;48.464;8.712;2022-09-09T06:23:58;8.38;;;2.00;;
25351;SDS011;13304;48.464;8.712;2022-09-09T06:26:25;9.95;;;2.17;;
25351;SDS011;13304;48.464;8.712;2022-09-09T06:29:01;5.13;;;1.75;;
25351;SDS011;13304;48.464;8.712;2022-09-09T06:31:29;6.07;;;1.70;;
25351;SDS011;13304;48.464;8.712;2022-09-09T06:33:56;11.18;;;1.98;;
25351;SDS011;13304;48.464;8.712;2022-09-09T06:36:23;6.45;;;1.50;;
25351;SDS011;13304;48.464;8.712;2022-09-09T06:38:54;5.85;;;1.60;;
25351;SDS011;13304;48.464;8.712;2022-09-09T06:41:21;9.00;;;1.60;;
25351;SDS011;13304;48.464;8.712;2022-09-09T06:43:48;6.43;;;1.73;;
25351;SDS011;13304;48.464;8.712;2022-09-09T06:46:18;5.53;;;1.88;;
25351;SDS011;13304;48.464;8.712;2022-09-09T06:48:46;3.58;;;1.80;;
25351;SDS011;13304;48.464;8.712;2022-09-09T06:53:52;8.70;;;1.80;;
25351;SDS011;13304;48.464;8.712;2022-09-09T06:56:37;6.45;;;1.70;;
25351;SDS011;13304;48.464;8.712;2022-09-09T06:59:08;6.82;;;1.80;;
25351;SDS011;13304;48.464;8.712;2022-09-09T07:01:36;4.82;;;1.50;;
25351;SDS011;13304;48.464;8.712;2022-09-09T07:04:09;5.38;;;1.60;;
25351;SDS011;13304;48.464;8.712;2022-09-09T07:06:37;5.38;;;1.42;;
25351;SDS011;13304;48.464;8.712;2022-09-09T07:09:05;4.07;;;1.55;;
25351;SDS011;13304;48.464;8.712;2022-09-09T07:11:43;6.13;;;1.70;;
25351;SDS011;13304;48.464;8.712;2022-09-09T07:14:13;6.50;;;1.67;;
25351;SDS011;13304;48.464;8.712;2022-09-09T07:16:43;5.43;;;1.30;;
25351;SDS011;13304;48.464;8.712;2022-09-09T07:19:10;7.57;;;1.55;;
25351;SDS011;13304;48.464;8.712;2022-09-09T07:21:36;5.07;;;1.42;;
25351;SDS011;13304;48.464;8.712;2022-09-09T07:24:02;7.03;;;1.42;;
25351;SDS011;13304;48.464;8.712;2022-09-09T07:26:32;4.50;;;1.30;;
25351;SDS011;13304;48.464;8.712;2022-09-09T07:28:58;9.35;;;1.63;;
25351;SDS011;13304;48.464;8.712;2022-09-09T07:31:34;4.65;;;1.40;;
25351;SDS011;13304;48.464;8.712;2022-09-09T07:34:01;7.57;;;2.00;;
25351;SDS011;13304;48.464;8.712;2022-09-09T07:36:29;10.13;;;1.60;;
25351;SDS011;13304;48.464;8.712;2022-09-09T07:38:57;9.52;;;1.73;;
25351;SDS011;13304;48.464;8.712;2022-09-09T07:41:25;9.73;;;2.50;;
25351;SDS011;13304;48.464;8.712;2022-09-09T07:46:20;12.98;;;1.90;;
25351;SDS011;13304;48.464;8.712;2022-09-09T07:48:54;12.63;;;1.80;;
25351;SDS011;13304;48.464;8.712;2022-09-09T07:51:24;4.28;;;1.50;;
25351;SDS011;13304;48.464;8.712;2022-09-09T07:53:53;3.90;;;1.42;;
25351;SDS011;13304;48.464;8.712;2022-09-09T07:56:20;4.72;;;1.60;;
25351;SDS011;13304;48.464;8.712;2022-09-09T07:58:49;5.75;;;1.65;;
25351;SDS011;13304;48.464;8.712;2022-09-09T08:01:17;5.47;;;1.80;;
25351;SDS011;13304;48.464;8.712;2022-09-09T08:03:46;8.45;;;1.60;;
25351;SDS011;13304;48.464;8.712;2022-09-09T08:06:30;6.35;;;1.67;;
25351;SDS011;13304;48.464;8.712;2022-09-09T08:09:00;6.68;;;1.38;;
25351;SDS011;13304;48.464;8.712;2022-09-09T08:11:27;6.32;;;1.55;;
25351;SDS011;13304;48.464;8.712;2022-09-09T08:13:55;8.45;;;1.75;;
25351;SDS011;13304;48.464;8.712;2022-09-09T08:16:23;5.60;;;1.30;;
25351;SDS011;13304;48.464;8.712;2022-09-09T08:21:24;5.57;;;1.10;;
25351;SDS011;13304;48.464;8.712;2022-09-09T08:23:54;6.82;;;1.50;;
25351;SDS011;13304;48.464;8.712;2022-09-09T08:26:22;4.97;;;1.50;;
25351;SDS011;13304;48.464;8.712;2022-09-09T08:28:50;4.80;;;1.57;;
25351;SDS011;13304;48.464;8.712;2022-09-09T08:33:45;6.03;;;1.65;;
25351;SDS011;13304;48.464;8.712;2022-09-09T08:36:12;5.00;;;1.48;;
25351;SDS011;13304;48.464;8.712;2022-09-09T08:38:41;3.95;;;1.25;;
25351;SDS011;13304;48.464;8.712;2022-09-09T08:43:46;11.98;;;2.05;;
25351;SDS011;13304;48.464;8.712;2022-09-09T08:51:10;13.25;;;1.70;;
25351;SDS011;13304;48.464;8.712;2022-09-09T08:53:45;7.68;;;1.48;;
25351;SDS011;13304;48.464;8.712;2022-09-09T08:56:16;5.97;;;1.40;;
25351;SDS011;13304;48.464;8.712;2022-09-09T08:58:50;8.65;;;1.85;;
25351;SDS011;13304;48.464;8.712;2022-09-09T09:01:32;5.22;;;1.33;;
25351;SDS011;13304;48.464;8.712;2022-09-09T09:13:19;7.03;;;1.55;;
25351;SDS011;13304;48.464;8.712;2022-09-09T09:16:00;8.80;;;1.48;;
25351;SDS011;13304;48.464;8.712;2022-09-09T09:18:35;8.88;;;1.73;;
25351;SDS011;13304;48.464;8.712;2022-09-09T09:21:12;4.03;;;1.40;;
25351;SDS011;13304;48.464;8.712;2022-09-09T09:23:54;9.02;;;1.77;;
25351;SDS011;13304;48.464;8.712;2022-09-09T09:26:34;8.73;;;1.65;;
25351;SDS011;13304;48.464;8.712;2022-09-09T09:29:03;6.95;;;1.40;;
25351;SDS011;13304;48.464;8.712;2022-09-09T09:31:43;5.05;;;1.30;;
25351;SDS011;13304;48.464;8.712;2022-09-09T09:34:17;6.80;;;1.40;;
25351;SDS011;13304;48.464;8.712;2022-09-09T09:36:52;6.55;;;1.25;;
25351;SDS011;13304;48.464;8.712;2022-09-09T09:39:29;4.88;;;1.20;;
25351;SDS011;13304;48.464;8.712;2022-09-09T09:42:07;5.68;;;1.42;;
25351;SDS011;13304;48.464;8.712;2022-09-09T09:44:39;4.28;;;1.25;;
25351;SDS011;13304;48.464;8.712;2022-09-09T09:47:13;5.30;;;1.30;;
25351;SDS011;13304;48.464;8.712;2022-09-09T09:52:21;4.55;;;1.30;;
25351;SDS011;13304;48.464;8.712;2022-09-09T09:54:49;6.10;;;1.65;;
25351;SDS011;13304;48.464;8.712;2022-09-09T09:57:16;5.30;;;1.98;;
25351;SDS011;13304;48.464;8.712;2022-09-09T09:59:43;6.32;;;1.20;;
25351;SDS011;13304;48.464;8.712;2022-09-09T10:04:42;4.95;;;1.40;;
25351;SDS011;13304;48.464;8.712;2022-09-09T10:07:11;6.63;;;1.40;;
25351;SDS011;13304;48.464;8.712;2022-09-09T10:09:44;4.60;;;1.42;;
25351;SDS011;13304;48.464;8.712;2022-09-09T10:19:42;3.40;;;1.00;;
25351;SDS011;13304;48.464;8.712;2022-09-09T10:22:27;6.25;;;1.58;;
25351;SDS011;13304;48.464;8.712;2022-09-09T10:40:48;2.38;;;0.98;;
25351;SDS011;13304;48.464;8.712;2022-09-09T10:46:18;6.40;;;1.20;;
25351;SDS011;13304;48.464;8.712;2022-09-09T11:02:45;0.80;;;0.50;;
25351;SDS011;13304;48.464;8.712;2022-09-09T11:05:41;2.22;;;0.80;;
25351;SDS011;13304;48.464;8.712;2022-09-09T11:08:12;1.58;;;0.68;;
25351;SDS011;13304;48.464;8.712;2022-09-09T11:16:50;2.65;;;0.90;;
25351;SDS011;13304;48.464;8.712;2022-09-09T11:21:49;4.60;;;1.02;;
25351;SDS011;13304;48.464;8.712;2022-09-09T11:27:13;1.88;;;0.70;;
25351;SDS011;13304;48.464;8.712;2022-09-09T11:40:40;4.90;;;1.38;;
25351;SDS011;13304;48.464;8.712;2022-09-09T11:45:57;2.28;;;1.05;;
25351;SDS011;13304;48.464;8.712;2022-09-09T11:48:38;3.28;;;1.17;;
25351;SDS011;13304;48.464;8.712;2022-09-09T11:51:10;3.83;;;1.25;;
25351;SDS011;13304;48.464;8.712;2022-09-09T11:54:25;6.15;;;1.35;;
25351;SDS011;13304;48.464;8.712;2022-09-09T11:56:47;5.22;;;1.05;;
25351;SDS011;13304;48.464;8.712;2022-09-09T12:01:50;2.60;;;0.80;;
25351;SDS011;13304;48.464;8.712;2022-09-09T12:07:04;3.90;;;1.00;;
25351;SDS011;13304;48.464;8.712;2022-09-09T12:12:23;2.60;;;1.00;;
25351;SDS011;13304;48.464;8.712;2022-09-09T12:14:57;3.40;;;1.00;;
25351;SDS011;13304;48.464;8.712;2022-09-09T12:17:25;3.50;;;1.00;;
25351;SDS011;13304;48.464;8.712;2022-09-09T12:25:23;3.15;;;1.23;;
25351;SDS011;13304;48.464;8.712;2022-09-09T12:28:02;3.17;;;1.02;;
25351;SDS011;13304;48.464;8.712;2022-09-09T12:30:58;8.77;;;1.50;;
25351;SDS011;13304;48.464;8.712;2022-09-09T12:33:47;3.38;;;1.00;;
25351;SDS011;13304;48.464;8.712;2022-09-09T12:36:18;3.45;;;1.05;;
25351;SDS011;13304;48.464;8.712;2022-09-09T12:38:52;5.07;;;1.23;;
25351;SDS011;13304;48.464;8.712;2022-09-09T12:43:50;5.07;;;1.00;;
25351;SDS011;13304;48.464;8.712;2022-09-09T12:46:38;5.13;;;1.08;;
25351;SDS011;13304;48.464;8.712;2022-09-09T12:51:54;6.78;;;0.82;;
25351;SDS011;13304;48.464;8.712;2022-09-09T12:54:22;5.85;;;1.20;;
25351;SDS011;13304;48.464;8.712;2022-09-09T12:56:48;2.95;;;1.10;;
25351;SDS011;13304;48.464;8.712;2022-09-09T12:59:34;3.15;;;1.15;;
25351;SDS011;13304;48.464;8.712;2022-09-09T13:02:02;6.93;;;0.90;;
25351;SDS011;13304;48.464;8.712;2022-09-09T13:04:36;5.57;;;1.25;;
25351;SDS011;13304;48.464;8.712;2022-09-09T13:07:08;3.70;;;1.15;;
25351;SDS011;13304;48.464;8.712;2022-09-09T13:09:35;2.88;;;0.95;;
25351;SDS011;13304;48.464;8.712;2022-09-09T13:12:01;3.80;;;1.20;;
25351;SDS011;13304;48.464;8.712;2022-09-09T13:14:32;5.03;;;1.00;;
25351;SDS011;13304;48.464;8.712;2022-09-09T13:17:03;2.38;;;0.90;;
25351;SDS011;13304;48.464;8.712;2022-09-09T13:19:32;8.20;;;1.23;;
25351;SDS011;13304;48.464;8.712;2022-09-09T13:22:14;3.28;;;0.80;;
25351;SDS011;13304;48.464;8.712;2022-09-09T13:27:37;4.60;;;1.20;;
25351;SDS011;13304;48.464;8.712;2022-09-09T13:30:21;3.70;;;1.20;;
25351;SDS011;13304;48.464;8.712;2022-09-09T13:35:36;4.72;;;0.90;;
25351;SDS011;13304;48.464;8.712;2022-09-09T13:38:17;5.25;;;0.80;;
25351;SDS011;13304;48.464;8.712;2022-09-09T13:40:59;1.95;;;0.80;;
25351;SDS011;13304;48.464;8.712;2022-09-09T13:43:30;3.42;;;1.02;;
25351;SDS011;13304;48.464;8.712;2022-09-09T13:45:59;5.72;;;1.20;;
25351;SDS011;13304;48.464;8.712;2022-09-09T13:48:27;2.70;;;0.98;;
25351;SDS011;13304;48.464;8.712;2022-09-09T13:51:04;3.75;;;1.10;;
25351;SDS011;13304;48.464;8.712;2022-09-09T13:53:31;3.88;;;0.98;;
25351;SDS011;13304;48.464;8.712;2022-09-09T13:55:57;2.10;;;0.85;;
25351;SDS011;13304;48.464;8.712;2022-09-09T13:58:23;1.58;;;0.75;;
25351;SDS011;13304;48.464;8.712;2022-09-09T14:00:50;4.28;;;0.90;;
25351;SDS011;13304;48.464;8.712;2022-09-09T14:03:17;2.90;;;0.90;;
25351;SDS011;13304;48.464;8.712;2022-09-09T14:05:46;5.63;;;1.00;;
25351;SDS011;13304;48.464;8.712;2022-09-09T14:08:15;4.28;;;0.95;;
25351;SDS011;13304;48.464;8.712;2022-09-09T14:10:46;4.57;;;1.00;;
25351;SDS011;13304;48.464;8.712;2022-09-09T14:13:15;3.13;;;1.02;;
25351;SDS011;13304;48.464;8.712;2022-09-09T14:15:41;2.08;;;0.88;;
25351;SDS011;13304;48.464;8.712;2022-09-09T14:18:09;12.13;;;1.40;;
25351;SDS011;13304;48.464;8.712;2022-09-09T14:20:39;2.20;;;0.98;;
25351;SDS011;13304;48.464;8.712;2022-09-09T14:23:05;2.88;;;1.00;;
25351;SDS011;13304;48.464;8.712;2022-09-09T14:25:31;3.45;;;1.00;;
25351;SDS011;13304;48.464;8.712;2022-09-09T14:27:58;3.08;;;0.95;;
25351;SDS011;13304;48.464;8.712;2022-09-09T14:30:24;5.15;;;1.10;;
25351;SDS011;13304;48.464;8.712;2022-09-09T14:32:50;3.72;;;1.20;;
25351;SDS011;13304;48.464;8.712;2022-09-09T14:35:15;5.90;;;1.30;;
25351;SDS011;13304;48.464;8.712;2022-09-09T14:37:43;4.60;;;0.88;;
25351;SDS011;13304;48.464;8.712;2022-09-09T14:40:09;2.90;;;0.90;;
25351;SDS011;13304;48.464;8.712;2022-09-09T14:42:36;5.47;;;1.13;;
25351;SDS011;13304;48.464;8.712;2022-09-09T14:45:02;4.30;;;0.90;;
25351;SDS011;13304;48.464;8.712;2022-09-09T14:47:28;2.78;;;0.82;;
25351;SDS011;13304;48.464;8.712;2022-09-09T14:49:55;9.30;;;1.20;;
25351;SDS011;13304;48.464;8.712;2022-09-09T14:52:21;4.05;;;1.05;;
25351;SDS011;13304;48.464;8.712;2022-09-09T14:54:46;3.97;;;0.63;;
25351;SDS011;13304;48.464;8.712;2022-09-09T14:57:12;6.18;;;1.10;;
25351;SDS011;13304;48.464;8.712;2022-09-09T14:59:38;4.90;;;1.13;;
25351;SDS011;13304;48.464;8.712;2022-09-09T15:02:04;1.85;;;0.77;;
25351;SDS011;13304;48.464;8.712;2022-09-09T15:04:30;3.47;;;1.00;;
25351;SDS011;13304;48.464;8.712;2022-09-09T15:06:55;3.80;;;0.88;;
25351;SDS011;13304;48.464;8.712;2022-09-09T15:09:21;2.72;;;1.00;;
25351;SDS011;13304;48.464;8.712;2022-09-09T15:11:47;2.53;;;0.80;;
25351;SDS011;13304;48.464;8.712;2022-09-09T15:14:13;5.15;;;0.85;;
25351;SDS011;13304;48.464;8.712;2022-09-09T15:16:39;5.50;;;1.00;;
25351;SDS011;13304;48.464;8.712;2022-09-09T15:19:05;2.55;;;0.90;;
25351;SDS011;13304;48.464;8.712;2022-09-09T15:21:32;4.70;;;1.00;;
25351;SDS011;13304;48.464;8.712;2022-09-09T15:24:02;3.22;;;0.82;;
25351;SDS011;13304;48.464;8.712;2022-09-09T15:26:28;2.33;;;0.90;;
25351;SDS011;13304;48.464;8.712;2022-09-09T15:28:55;3.42;;;0.88;;
25351;SDS011;13304;48.464;8.712;2022-09-09T15:31:24;1.73;;;0.98;;
25351;SDS011;13304;48.464;8.712;2022-09-09T15:33:56;1.98;;;0.77;;
25351;SDS011;13304;48.464;8.712;2022-09-09T15:36:27;3.03;;;1.00;;
25351;SDS011;13304;48.464;8.712;2022-09-09T15:38:57;2.13;;;0.90;;
25351;SDS011;13304;48.464;8.712;2022-09-09T15:41:24;1.38;;;0.60;;
25351;SDS011;13304;48.464;8.712;2022-09-09T15:43:51;2.22;;;0.73;;
25351;SDS011;13304;48.464;8.712;2022-09-09T15:48:55;2.45;;;0.60;;
25351;SDS011;13304;48.464;8.712;2022-09-09T15:51:23;2.85;;;0.80;;
25351;SDS011;13304;48.464;8.712;2022-09-09T15:53:54;4.80;;;0.82;;
25351;SDS011;13304;48.464;8.712;2022-09-09T15:56:21;1.73;;;0.60;;
25351;SDS011;13304;48.464;8.712;2022-09-09T15:58:48;2.33;;;0.70;;
25351;SDS011;13304;48.464;8.712;2022-09-09T16:01:13;2.80;;;0.75;;
25351;SDS011;13304;48.464;8.712;2022-09-09T16:03:40;3.47;;;0.90;;
25351;SDS011;13304;48.464;8.712;2022-09-09T16:06:11;4.82;;;1.00;;
25351;SDS011;13304;48.464;8.712;2022-09-09T16:08:40;2.45;;;0.82;;
25351;SDS011;13304;48.464;8.712;2022-09-09T16:13:39;3.10;;;0.90;;
25351;SDS011;13304;48.464;8.712;2022-09-09T16:16:06;2.55;;;0.82;;
25351;SDS011;13304;48.464;8.712;2022-09-09T16:18:37;3.83;;;1.00;;
25351;SDS011;13304;48.464;8.712;2022-09-09T16:21:08;2.42;;;0.82;;
25351;SDS011;13304;48.464;8.712;2022-09-09T16:23:38;4.15;;;1.10;;
25351;SDS011;13304;48.464;8.712;2022-09-09T16:26:04;1.33;;;0.70;;
25351;SDS011;13304;48.464;8.712;2022-09-09T16:28:30;1.33;;;0.70;;
25351;SDS011;13304;48.464;8.712;2022-09-09T16:30:56;1.98;;;0.73;;
25351;SDS011;13304;48.464;8.712;2022-09-09T16:33:23;3.85;;;1.08;;
25351;SDS011;13304;48.464;8.712;2022-09-09T16:35:51;2.42;;;0.70;;
25351;SDS011;13304;48.464;8.712;2022-09-09T16:38:17;3.25;;;1.02;;
25351;SDS011;13304;48.464;8.712;2022-09-09T16:40:42;4.47;;;1.13;;
25351;SDS011;13304;48.464;8.712;2022-09-09T16:43:08;6.10;;;1.20;;
25351;SDS011;13304;48.464;8.712;2022-09-09T16:45:43;3.35;;;0.80;;
25351;SDS011;13304;48.464;8.712;2022-09-09T16:48:10;2.28;;;0.60;;
25351;SDS011;13304;48.464;8.712;2022-09-09T16:50:36;9.88;;;1.13;;
25351;SDS011;13304;48.464;8.712;2022-09-09T16:53:05;4.47;;;1.27;;
25351;SDS011;13304;48.464;8.712;2022-09-09T16:55:36;3.30;;;1.07;;
25351;SDS011;13304;48.464;8.712;2022-09-09T16:58:04;3.00;;;0.90;;
25351;SDS011;13304;48.464;8.712;2022-09-09T17:00:29;1.63;;;0.77;;
25351;SDS011;13304;48.464;8.712;2022-09-09T17:02:55;1.70;;;0.60;;
25351;SDS011;13304;48.464;8.712;2022-09-09T17:05:21;3.55;;;1.05;;
25351;SDS011;13304;48.464;8.712;2022-09-09T17:07:48;4.50;;;0.80;;
25351;SDS011;13304;48.464;8.712;2022-09-09T17:10:13;3.78;;;1.10;;
25351;SDS011;13304;48.464;8.712;2022-09-09T17:12:39;4.25;;;0.90;;
25351;SDS011;13304;48.464;8.712;2022-09-09T17:15:06;1.67;;;0.77;;
25351;SDS011;13304;48.464;8.712;2022-09-09T17:17:32;1.90;;;0.80;;
25351;SDS011;13304;48.464;8.712;2022-09-09T17:19:58;2.60;;;0.80;;
25351;SDS011;13304;48.464;8.712;2022-09-09T17:22:24;3.03;;;0.65;;
25351;SDS011;13304;48.464;8.712;2022-09-09T17:24:51;6.05;;;0.75;;
25351;SDS011;13304;48.464;8.712;2022-09-09T17:27:17;3.75;;;0.82;;
25351;SDS011;13304;48.464;8.712;2022-09-09T17:29:43;1.38;;;0.65;;
25351;SDS011;13304;48.464;8.712;2022-09-09T17:32:08;4.10;;;0.82;;
25351;SDS011;13304;48.464;8.712;2022-09-09T17:34:34;2.38;;;0.70;;
25351;SDS011;13304;48.464;8.712;2022-09-09T17:37:00;1.80;;;0.60;;
25351;SDS011;13304;48.464;8.712;2022-09-09T17:39:26;2.08;;;0.73;;
25351;SDS011;13304;48.464;8.712;2022-09-09T17:41:52;5.13;;;0.98;;
25351;SDS011;13304;48.464;8.712;2022-09-09T17:44:19;1.63;;;0.70;;
25351;SDS011;13304;48.464;8.712;2022-09-09T17:46:45;2.67;;;0.88;;
25351;SDS011;13304;48.464;8.712;2022-09-09T17:49:12;1.30;;;0.60;;